createdAt,value
2023-02-14T00:00:52.103Z,8.70
2023-02-14T00:04:54.837Z,9.90
2023-02-14T00:08:56.244Z,10.13
2023-02-14T00:12:57.834Z,10.23
2023-02-14T00:16:59.453Z,9.90
2023-02-14T00:21:02.145Z,9.57
2023-02-14T00:25:04.177Z,9.60
2023-02-14T00:29:06.770Z,9.83
2023-02-14T00:33:08.137Z,9.27
2023-02-14T00:37:10.833Z,8.27
2023-02-14T00:41:12.499Z,8.60
2023-02-14T00:45:13.960Z,8.37
2023-02-14T00:49:15.430Z,8.47
2023-02-14T00:53:19.873Z,8.53
2023-02-14T00:57:21.316Z,7.93
2023-02-14T01:01:22.779Z,8.27
2023-02-14T01:05:24.196Z,8.23
2023-02-14T01:09:26.987Z,8.10
2023-02-14T01:13:28.316Z,7.97
2023-02-14T01:17:29.732Z,7.67
2023-02-14T01:21:33.754Z,7.43
2023-02-14T01:25:38.246Z,8.10
2023-02-14T01:29:39.615Z,8.87
2023-02-14T01:33:42.715Z,9.40
2023-02-14T01:37:44.113Z,9.00
2023-02-14T01:41:48.247Z,10.03
2023-02-14T01:45:49.680Z,8.83
2023-02-14T01:49:54.041Z,8.03
2023-02-14T01:53:56.466Z,7.93
2023-02-14T01:58:04.755Z,8.03
2023-02-14T02:02:07.717Z,7.87
2023-02-14T02:06:13.667Z,7.13
2023-02-14T02:10:15.026Z,7.30
2023-02-14T02:14:20.401Z,7.83
2023-02-14T02:18:32.166Z,7.20
2023-02-14T02:23:04.399Z,6.53
2023-02-14T02:27:44.346Z,7.17
2023-02-14T02:32:22.228Z,6.77
2023-02-14T02:36:50.000Z,6.77
2023-02-14T02:41:02.692Z,7.07
2023-02-14T02:45:11.793Z,7.07
2023-02-14T02:49:22.628Z,7.33
2023-02-14T02:53:32.099Z,6.97
2023-02-14T02:57:39.353Z,6.80
2023-02-14T03:01:41.369Z,6.60
2023-02-14T03:05:43.452Z,6.87
2023-02-14T03:09:54.741Z,7.73
2023-02-14T03:14:13.020Z,7.17
2023-02-14T03:18:30.115Z,7.40
2023-02-14T03:22:48.477Z,6.90
2023-02-14T03:26:59.612Z,7.37
2023-02-14T03:31:07.667Z,7.70
2023-02-14T03:35:18.148Z,7.00
2023-02-14T03:39:28.945Z,7.50
2023-02-14T03:43:35.253Z,7.57
2023-02-14T03:47:40.791Z,7.73
2023-02-14T03:51:47.593Z,7.60
2023-02-14T03:55:58.227Z,7.43
2023-02-14T04:00:01.117Z,6.97
2023-02-14T04:04:06.490Z,7.90
2023-02-14T04:08:07.898Z,8.20
2023-02-14T04:12:09.682Z,8.57
2023-02-14T04:16:12.521Z,8.80
2023-02-14T04:20:13.902Z,8.30
2023-02-14T04:24:15.273Z,8.70
2023-02-14T04:28:16.911Z,8.50
2023-02-14T04:32:22.040Z,7.90
2023-02-14T04:36:23.487Z,7.83
2023-02-14T04:40:24.844Z,7.80
2023-02-14T04:44:26.664Z,8.07
2023-02-14T04:48:29.344Z,9.43
2023-02-14T04:52:30.904Z,9.00
2023-02-14T04:56:32.328Z,9.27
2023-02-14T05:00:33.723Z,9.17
2023-02-14T05:04:36.481Z,9.13
2023-02-14T05:08:38.212Z,9.80
2023-02-14T05:12:39.640Z,9.43
2023-02-14T05:16:41.310Z,9.70
2023-02-14T05:20:44.126Z,9.77
2023-02-14T05:24:45.522Z,10.10
2023-02-14T05:28:48.281Z,10.63
2023-02-14T05:32:49.672Z,9.93
2023-02-14T05:36:52.525Z,9.67
2023-02-14T05:40:54.144Z,9.83
2023-02-14T05:44:55.528Z,9.93
2023-02-14T05:48:56.948Z,12.52
2023-02-14T05:53:00.754Z,10.70
2023-02-14T05:57:02.154Z,11.20
2023-02-14T06:01:03.673Z,11.97
2023-02-14T06:05:05.712Z,12.60
2023-02-14T06:09:08.643Z,11.60
2023-02-14T06:13:10.028Z,10.60
2023-02-14T06:17:11.869Z,10.07
2023-02-14T06:25:43.802Z,13.43
2023-02-14T06:29:45.180Z,13.97
2023-02-14T06:33:46.548Z,16.00
2023-02-14T06:37:48.174Z,14.67
2023-02-14T06:41:50.866Z,14.97
2023-02-14T06:45:52.291Z,15.53
2023-02-14T06:49:53.727Z,15.70
2023-02-14T06:53:55.111Z,15.37
2023-02-14T06:57:57.862Z,16.57
2023-02-14T07:01:59.252Z,16.17
2023-02-14T07:06:00.681Z,17.00
2023-02-14T07:10:02.052Z,16.40
2023-02-14T07:14:04.745Z,17.33
2023-02-14T07:18:06.382Z,17.03
2023-02-14T07:22:07.770Z,16.43
2023-02-14T07:26:09.304Z,17.13
2023-02-14T07:30:13.277Z,17.83
2023-02-14T07:34:14.732Z,17.97
2023-02-14T07:38:16.103Z,17.30
2023-02-14T07:42:17.480Z,18.03
2023-02-14T07:46:20.295Z,18.43
2023-02-14T07:50:22.945Z,17.97
2023-02-14T07:54:24.416Z,18.57
2023-02-14T07:58:25.811Z,19.53
2023-02-14T08:02:28.526Z,20.17
2023-02-14T08:06:29.923Z,19.33
2023-02-14T08:10:31.404Z,18.87
2023-02-14T08:14:32.777Z,20.23
2023-02-14T08:18:37.281Z,19.50
2023-02-14T08:22:38.658Z,18.90
2023-02-14T08:26:40.022Z,19.00
2023-02-14T08:30:42.278Z,18.87
2023-02-14T08:34:45.016Z,20.20
2023-02-14T08:38:46.506Z,17.43
2023-02-14T08:42:47.932Z,19.03
2023-02-14T08:46:49.348Z,19.00
2023-02-14T08:50:52.064Z,18.30
2023-02-14T08:54:53.441Z,19.63
2023-02-14T08:58:54.920Z,19.83
2023-02-14T09:02:56.381Z,18.47
2023-02-14T09:06:59.063Z,17.87
2023-02-14T09:11:06.783Z,19.00
2023-02-14T09:15:09.745Z,16.97
2023-02-14T09:19:11.453Z,17.60
2023-02-14T09:23:14.197Z,17.33
2023-02-14T09:27:15.578Z,19.23
2023-02-14T09:31:19.638Z,18.03
2023-02-14T09:35:21.071Z,17.20
2023-02-14T09:39:23.855Z,17.30
2023-02-14T09:43:34.121Z,18.73
2023-02-14T09:47:39.988Z,18.37
2023-02-14T09:51:46.573Z,17.00
2023-02-14T09:55:56.457Z,17.90
2023-02-14T10:00:13.435Z,17.30
2023-02-14T10:04:24.000Z,17.23
2023-02-14T10:08:33.129Z,16.77
2023-02-14T10:12:39.806Z,17.33
2023-02-14T10:16:47.050Z,17.60
2023-02-14T10:20:52.789Z,17.73
2023-02-14T10:24:58.903Z,16.57
2023-02-14T10:29:04.635Z,17.70
2023-02-14T10:33:15.398Z,16.73
2023-02-14T10:37:32.371Z,16.43
2023-02-14T10:41:46.509Z,17.20
2023-02-14T10:45:58.528Z,16.87
2023-02-14T10:50:11.490Z,15.57
2023-02-14T10:54:20.203Z,15.73
2023-02-14T10:58:23.747Z,15.53
2023-02-14T11:02:31.547Z,15.27
2023-02-14T11:06:33.303Z,14.73
2023-02-14T11:10:34.718Z,15.27
2023-02-14T11:14:37.724Z,14.33
2023-02-14T11:18:41.054Z,14.57
2023-02-14T11:22:43.537Z,14.63
2023-02-14T11:26:47.310Z,14.43
2023-02-14T11:30:51.113Z,15.33
2023-02-14T11:34:58.831Z,14.47
2023-02-14T11:39:06.046Z,13.70
2023-02-14T11:43:19.419Z,14.47
2023-02-14T11:47:27.133Z,14.20
2023-02-14T11:51:33.476Z,13.97
2023-02-14T11:55:35.046Z,13.20
2023-02-14T11:59:40.541Z,13.90
2023-02-14T12:03:46.547Z,14.57
2023-02-14T12:07:52.366Z,14.17
2023-02-14T12:11:58.445Z,13.13
2023-02-14T12:16:00.309Z,13.20
2023-02-14T12:20:08.855Z,12.40
2023-02-14T12:24:20.921Z,13.93
2023-02-14T12:28:28.166Z,14.27
2023-02-14T12:32:31.684Z,15.00
2023-02-14T12:36:49.825Z,14.43
2023-02-14T12:41:04.234Z,13.93
2023-02-14T12:45:17.234Z,13.20
2023-02-14T12:49:32.598Z,11.70
2023-02-14T12:53:56.080Z,12.17
2023-02-14T12:58:06.417Z,11.03
2023-02-14T13:02:41.905Z,11.00
2023-02-14T13:06:48.719Z,10.80
2023-02-14T13:10:57.265Z,11.00
2023-02-14T13:15:11.157Z,10.90
2023-02-14T13:19:26.486Z,11.20
2023-02-14T13:23:33.525Z,11.27
2023-02-14T13:27:38.450Z,10.93
2023-02-14T13:31:41.943Z,11.63
2023-02-14T13:35:43.883Z,12.37
2023-02-14T13:39:48.715Z,11.80
2023-02-14T13:43:57.503Z,12.47
2023-02-14T13:48:05.399Z,11.70
2023-02-14T13:52:06.855Z,12.03
2023-02-14T13:56:32.379Z,12.17
2023-02-14T14:00:43.631Z,11.13
2023-02-14T14:04:46.379Z,10.93
2023-02-14T14:08:50.661Z,11.13
2023-02-14T14:12:52.118Z,10.70
2023-02-14T14:16:57.875Z,11.10
2023-02-14T14:21:00.894Z,11.33
2023-02-14T14:25:04.652Z,11.20
2023-02-14T14:29:18.109Z,10.60
2023-02-14T14:33:25.719Z,11.80
2023-02-14T14:37:30.338Z,11.07
2023-02-14T14:41:32.649Z,10.90
2023-02-14T14:45:34.445Z,10.63
2023-02-14T14:49:36.601Z,11.83
2023-02-14T14:53:44.663Z,11.03
2023-02-14T14:57:50.566Z,11.10
2023-02-14T15:01:52.099Z,11.13
2023-02-14T15:06:04.879Z,10.90
2023-02-14T15:10:24.202Z,9.83
2023-02-14T15:14:30.238Z,11.63
2023-02-14T15:18:31.664Z,10.60
2023-02-14T15:22:41.813Z,10.37
2023-02-14T15:26:46.687Z,10.40
2023-02-14T15:30:56.137Z,10.07
2023-02-14T15:35:01.614Z,10.53
2023-02-14T15:39:06.371Z,10.73
2023-02-14T15:43:21.286Z,11.23
2023-02-14T15:47:22.662Z,11.43
2023-02-14T15:51:27.073Z,10.50
2023-02-14T15:55:29.842Z,11.03
2023-02-14T15:59:34.898Z,10.70
2023-02-14T16:03:40.144Z,10.23
2023-02-14T16:07:55.688Z,10.53
2023-02-14T16:11:57.244Z,10.37
2023-02-14T16:16:01.612Z,10.20
2023-02-14T16:20:28.351Z,10.20
2023-02-14T16:24:29.927Z,10.40
2023-02-14T16:28:35.813Z,10.40
2023-02-14T16:32:57.348Z,11.13
2023-02-14T16:41:24.439Z,9.97
2023-02-14T16:45:40.868Z,10.97
2023-02-14T16:49:43.982Z,10.57
2023-02-14T16:53:45.863Z,10.97
2023-02-14T16:57:51.349Z,10.03
2023-02-14T17:01:53.090Z,10.67
2023-02-14T17:05:57.776Z,10.63
2023-02-14T17:10:02.799Z,10.83
2023-02-14T17:14:04.614Z,11.00
2023-02-14T17:18:11.513Z,10.83
2023-02-14T17:22:14.555Z,11.73
2023-02-14T17:26:16.369Z,10.87
2023-02-14T17:30:18.232Z,11.50
2023-02-14T17:34:19.653Z,11.33
2023-02-14T17:38:22.353Z,11.27
2023-02-14T17:42:24.026Z,11.23
2023-02-14T17:46:25.984Z,11.13
2023-02-14T17:50:27.360Z,11.50
2023-02-14T17:54:30.073Z,10.90
2023-02-14T17:58:31.551Z,12.37
2023-02-14T18:02:32.971Z,11.80
2023-02-14T18:06:34.444Z,12.73
2023-02-14T18:10:38.640Z,12.47
2023-02-14T18:14:40.319Z,12.83
2023-02-14T18:18:46.012Z,12.53
2023-02-14T18:22:47.420Z,12.37
2023-02-14T18:26:50.223Z,12.63
2023-02-14T18:30:52.369Z,12.83
2023-02-14T18:34:54.046Z,12.53
2023-02-14T18:38:55.836Z,12.23
2023-02-14T18:42:58.532Z,13.57
2023-02-14T18:46:59.980Z,13.57
2023-02-14T18:51:05.326Z,12.13
2023-02-14T18:55:09.099Z,12.60
2023-02-14T18:59:11.807Z,13.23
2023-02-14T19:03:13.201Z,12.97
2023-02-14T19:07:14.662Z,13.63
2023-02-14T19:11:18.953Z,14.17
2023-02-14T19:15:21.651Z,13.63
2023-02-14T19:19:23.084Z,13.63
2023-02-14T19:23:24.633Z,13.97
2023-02-14T19:27:26.262Z,14.00
2023-02-14T19:31:29.293Z,13.77
2023-02-14T19:35:30.760Z,14.17
2023-02-14T19:39:32.244Z,13.60
2023-02-14T19:43:33.572Z,14.03
2023-02-14T19:47:46.712Z,14.13
2023-02-14T19:51:49.826Z,14.77
2023-02-14T19:55:51.189Z,15.20
2023-02-14T19:59:52.588Z,15.43
2023-02-14T20:03:55.727Z,15.07
2023-02-14T20:07:57.083Z,14.20
2023-02-14T20:11:58.566Z,15.40
2023-02-14T20:15:59.929Z,14.50
2023-02-14T20:20:02.973Z,15.63
2023-02-14T20:24:04.847Z,15.27
2023-02-14T20:28:10.251Z,16.37
2023-02-14T20:32:14.807Z,15.10
2023-02-14T20:36:23.824Z,16.17
2023-02-14T20:40:25.487Z,15.80
2023-02-14T20:44:26.993Z,16.90
2023-02-14T20:48:29.490Z,16.00
2023-02-14T20:52:32.236Z,16.13
2023-02-14T20:56:33.829Z,16.70
2023-02-14T21:00:35.184Z,16.80
2023-02-14T21:04:36.583Z,17.37
2023-02-14T21:08:42.311Z,16.07
2023-02-14T21:12:43.762Z,16.97
2023-02-14T21:16:45.159Z,16.33
2023-02-14T21:20:46.534Z,17.37
2023-02-14T21:24:49.483Z,17.40
2023-02-14T21:28:51.107Z,17.40
2023-02-14T21:32:52.862Z,17.03
2023-02-14T21:36:54.227Z,16.43
2023-02-14T21:41:01.623Z,16.93
2023-02-14T21:45:03.311Z,16.17
2023-02-14T21:49:05.969Z,16.77
2023-02-14T21:53:07.464Z,16.97
2023-02-14T21:57:10.255Z,17.13
2023-02-14T22:01:15.612Z,15.93
2023-02-14T22:05:17.298Z,17.33
2023-02-14T22:09:18.763Z,17.80
2023-02-14T22:13:21.686Z,16.70
2023-02-14T22:17:23.046Z,17.37
2023-02-14T22:21:26.216Z,17.47
2023-02-14T22:25:27.617Z,17.60
2023-02-14T22:29:30.317Z,17.67
2023-02-14T22:33:31.701Z,17.43
2023-02-14T22:37:33.217Z,16.83
2023-02-14T22:41:35.087Z,18.60
2023-02-14T22:45:37.786Z,19.03
2023-02-14T22:49:39.215Z,20.20
2023-02-14T22:53:40.553Z,19.30
2023-02-14T22:57:41.881Z,19.67
2023-02-14T23:01:45.460Z,18.90
2023-02-14T23:05:47.081Z,19.50
2023-02-14T23:09:49.247Z,17.90
2023-02-14T23:13:50.795Z,18.80
2023-02-14T23:17:53.467Z,19.97
2023-02-14T23:21:54.881Z,19.00
2023-02-14T23:25:56.255Z,20.03
2023-02-14T23:29:57.969Z,20.67
2023-02-14T23:34:00.685Z,21.53
2023-02-14T23:38:02.103Z,20.93
2023-02-14T23:42:03.662Z,20.93
2023-02-14T23:46:05.299Z,21.33
2023-02-14T23:50:09.158Z,20.13
2023-02-14T23:54:11.467Z,20.77
2023-02-14T23:58:12.821Z,21.60
